sensor_id;sensor_type;location;lat;lon;timestamp;P1;durP1;ratioP1;P2;durP2;ratioP2
50104;SDS011;47690;39.202;-77.198;2023-07-31T03:04:39;2.08;;;1.88;;
50104;SDS011;47690;39.202;-77.198;2023-07-31T03:11:16;2.70;;;2.10;;
50104;SDS011;47690;39.202;-77.198;2023-07-31T03:14:20;2.25;;;2.05;;
50104;SDS011;47690;39.202;-77.198;2023-07-31T03:17:22;2.33;;;2.00;;
50104;SDS011;47690;39.202;-77.198;2023-07-31T03:20:28;2.20;;;2.00;;
50104;SDS011;47690;39.202;-77.198;2023-07-31T03:23:30;1.90;;;1.80;;
50104;SDS011;47690;39.202;-77.198;2023-07-31T03:26:35;2.28;;;2.08;;
50104;SDS011;47690;39.202;-77.198;2023-07-31T03:33:12;3.25;;;2.00;;
50104;SDS011;47690;39.202;-77.198;2023-07-31T03:36:17;2.13;;;1.92;;
50104;SDS011;47690;39.202;-77.198;2023-07-31T03:39:23;2.08;;;1.88;;
50104;SDS011;47690;39.202;-77.198;2023-07-31T03:42:27;2.17;;;1.98;;
50104;SDS011;47690;39.202;-77.198;2023-07-31T03:45:30;2.10;;;1.90;;
50104;SDS011;47690;39.202;-77.198;2023-07-31T03:48:34;2.30;;;2.10;;
50104;SDS011;47690;39.202;-77.198;2023-07-31T03:54:43;5.07;;;2.00;;
50104;SDS011;47690;39.202;-77.198;2023-07-31T03:57:49;2.00;;;1.80;;
50104;SDS011;47690;39.202;-77.198;2023-07-31T04:00:55;1.90;;;1.80;;
50104;SDS011;47690;39.202;-77.198;2023-07-31T04:03:59;3.77;;;2.00;;
50104;SDS011;47690;39.202;-77.198;2023-07-31T04:07:03;2.20;;;2.00;;
50104;SDS011;47690;39.202;-77.198;2023-07-31T04:13:37;2.10;;;1.90;;
50104;SDS011;47690;39.202;-77.198;2023-07-31T04:16:40;2.90;;;2.10;;
50104;SDS011;47690;39.202;-77.198;2023-07-31T04:19:44;2.22;;;2.03;;
50104;SDS011;47690;39.202;-77.198;2023-07-31T04:22:48;3.22;;;2.30;;
50104;SDS011;47690;39.202;-77.198;2023-07-31T04:25:53;2.25;;;2.05;;
50104;SDS011;47690;39.202;-77.198;2023-07-31T04:28:56;2.30;;;2.10;;
50104;SDS011;47690;39.202;-77.198;2023-07-31T04:31:59;3.03;;;2.10;;
50104;SDS011;47690;39.202;-77.198;2023-07-31T04:35:03;2.28;;;2.03;;
50104;SDS011;47690;39.202;-77.198;2023-07-31T04:38:08;2.25;;;2.03;;
50104;SDS011;47690;39.202;-77.198;2023-07-31T04:41:11;2.30;;;2.10;;
50104;SDS011;47690;39.202;-77.198;2023-07-31T04:44:15;3.72;;;2.20;;
50104;SDS011;47690;39.202;-77.198;2023-07-31T04:47:19;2.13;;;1.92;;
50104;SDS011;47690;39.202;-77.198;2023-07-31T04:50:22;2.05;;;1.85;;
50104;SDS011;47690;39.202;-77.198;2023-07-31T04:53:26;2.30;;;2.10;;
50104;SDS011;47690;39.202;-77.198;2023-07-31T04:56:29;2.60;;;2.20;;
50104;SDS011;47690;39.202;-77.198;2023-07-31T04:59:31;2.85;;;2.30;;
50104;SDS011;47690;39.202;-77.198;2023-07-31T05:02:40;2.47;;;2.28;;
50104;SDS011;47690;39.202;-77.198;2023-07-31T05:09:10;2.50;;;2.30;;
50104;SDS011;47690;39.202;-77.198;2023-07-31T05:12:13;2.25;;;2.05;;
50104;SDS011;47690;39.202;-77.198;2023-07-31T05:15:17;2.80;;;2.17;;
50104;SDS011;47690;39.202;-77.198;2023-07-31T05:18:21;2.40;;;2.10;;
50104;SDS011;47690;39.202;-77.198;2023-07-31T05:21:27;2.97;;;2.20;;
50104;SDS011;47690;39.202;-77.198;2023-07-31T05:24:34;2.90;;;2.42;;
50104;SDS011;47690;39.202;-77.198;2023-07-31T05:27:37;2.40;;;2.20;;
50104;SDS011;47690;39.202;-77.198;2023-07-31T05:30:40;2.30;;;2.10;;
50104;SDS011;47690;39.202;-77.198;2023-07-31T05:33:47;2.40;;;2.20;;
50104;SDS011;47690;39.202;-77.198;2023-07-31T05:37:00;2.20;;;2.00;;
50104;SDS011;47690;39.202;-77.198;2023-07-31T05:40:03;2.53;;;2.20;;
50104;SDS011;47690;39.202;-77.198;2023-07-31T05:43:05;2.58;;;2.08;;
50104;SDS011;47690;39.202;-77.198;2023-07-31T05:46:10;4.22;;;2.40;;
50104;SDS011;47690;39.202;-77.198;2023-07-31T05:49:15;2.28;;;2.08;;
50104;SDS011;47690;39.202;-77.198;2023-07-31T05:52:19;2.47;;;2.17;;
50104;SDS011;47690;39.202;-77.198;2023-07-31T05:55:23;2.20;;;1.90;;
50104;SDS011;47690;39.202;-77.198;2023-07-31T05:58:28;2.40;;;2.20;;
50104;SDS011;47690;39.202;-77.198;2023-07-31T06:01:31;1.80;;;1.70;;
50104;SDS011;47690;39.202;-77.198;2023-07-31T06:04:37;2.20;;;2.00;;
50104;SDS011;47690;39.202;-77.198;2023-07-31T06:07:40;2.15;;;1.98;;
50104;SDS011;47690;39.202;-77.198;2023-07-31T06:10:44;2.33;;;2.13;;
50104;SDS011;47690;39.202;-77.198;2023-07-31T06:13:48;2.33;;;2.13;;
50104;SDS011;47690;39.202;-77.198;2023-07-31T06:16:56;2.97;;;2.10;;
50104;SDS011;47690;39.202;-77.198;2023-07-31T06:19:59;2.30;;;2.10;;
50104;SDS011;47690;39.202;-77.198;2023-07-31T06:23:03;2.35;;;2.15;;
50104;SDS011;47690;39.202;-77.198;2023-07-31T06:26:11;2.25;;;2.05;;
50104;SDS011;47690;39.202;-77.198;2023-07-31T06:29:15;2.33;;;2.13;;
50104;SDS011;47690;39.202;-77.198;2023-07-31T06:32:24;2.28;;;2.08;;
50104;SDS011;47690;39.202;-77.198;2023-07-31T06:35:27;2.63;;;2.30;;
50104;SDS011;47690;39.202;-77.198;2023-07-31T06:42:01;2.40;;;2.20;;
50104;SDS011;47690;39.202;-77.198;2023-07-31T06:45:03;2.30;;;2.10;;
50104;SDS011;47690;39.202;-77.198;2023-07-31T06:48:09;2.38;;;2.17;;
50104;SDS011;47690;39.202;-77.198;2023-07-31T06:51:11;2.40;;;2.20;;
50104;SDS011;47690;39.202;-77.198;2023-07-31T06:54:16;2.30;;;2.10;;
50104;SDS011;47690;39.202;-77.198;2023-07-31T06:57:19;2.70;;;2.22;;
50104;SDS011;47690;39.202;-77.198;2023-07-31T07:00:23;3.00;;;2.20;;
50104;SDS011;47690;39.202;-77.198;2023-07-31T07:03:27;2.50;;;2.30;;
50104;SDS011;47690;39.202;-77.198;2023-07-31T07:06:31;2.30;;;2.10;;
50104;SDS011;47690;39.202;-77.198;2023-07-31T07:12:43;2.75;;;2.10;;
50104;SDS011;47690;39.202;-77.198;2023-07-31T07:15:48;2.20;;;2.00;;
50104;SDS011;47690;39.202;-77.198;2023-07-31T07:18:51;3.05;;;2.10;;
50104;SDS011;47690;39.202;-77.198;2023-07-31T07:21:57;2.40;;;2.00;;
50104;SDS011;47690;39.202;-77.198;2023-07-31T07:25:00;2.42;;;2.13;;
50104;SDS011;47690;39.202;-77.198;2023-07-31T07:28:04;2.50;;;2.30;;
50104;SDS011;47690;39.202;-77.198;2023-07-31T07:34:11;2.05;;;1.88;;
50104;SDS011;47690;39.202;-77.198;2023-07-31T07:37:16;2.70;;;2.20;;
50104;SDS011;47690;39.202;-77.198;2023-07-31T07:40:20;2.20;;;2.00;;
50104;SDS011;47690;39.202;-77.198;2023-07-31T07:43:24;2.10;;;1.90;;
50104;SDS011;47690;39.202;-77.198;2023-07-31T07:46:27;2.58;;;2.08;;
50104;SDS011;47690;39.202;-77.198;2023-07-31T07:49:33;2.22;;;2.03;;
50104;SDS011;47690;39.202;-77.198;2023-07-31T07:52:41;3.63;;;2.00;;
50104;SDS011;47690;39.202;-77.198;2023-07-31T07:55:44;2.53;;;2.33;;
50104;SDS011;47690;39.202;-77.198;2023-07-31T07:58:48;2.17;;;2.00;;
50104;SDS011;47690;39.202;-77.198;2023-07-31T08:01:51;1.98;;;1.80;;
50104;SDS011;47690;39.202;-77.198;2023-07-31T08:04:55;2.20;;;2.00;;
50104;SDS011;47690;39.202;-77.198;2023-07-31T08:08:00;2.28;;;1.95;;
50104;SDS011;47690;39.202;-77.198;2023-07-31T08:14:33;2.30;;;2.10;;
50104;SDS011;47690;39.202;-77.198;2023-07-31T08:17:35;1.98;;;1.88;;
50104;SDS011;47690;39.202;-77.198;2023-07-31T08:20:41;2.30;;;2.10;;
50104;SDS011;47690;39.202;-77.198;2023-07-31T08:23:45;2.30;;;2.10;;
50104;SDS011;47690;39.202;-77.198;2023-07-31T08:26:48;2.50;;;2.08;;
50104;SDS011;47690;39.202;-77.198;2023-07-31T08:29:51;4.10;;;2.30;;
50104;SDS011;47690;39.202;-77.198;2023-07-31T08:32:57;2.35;;;2.15;;
50104;SDS011;47690;39.202;-77.198;2023-07-31T08:39:08;2.20;;;2.00;;
50104;SDS011;47690;39.202;-77.198;2023-07-31T08:42:11;2.05;;;1.85;;
50104;SDS011;47690;39.202;-77.198;2023-07-31T08:45:19;2.20;;;2.00;;
50104;SDS011;47690;39.202;-77.198;2023-07-31T08:51:55;2.20;;;2.00;;
50104;SDS011;47690;39.202;-77.198;2023-07-31T08:54:59;3.45;;;2.13;;
50104;SDS011;47690;39.202;-77.198;2023-07-31T08:58:03;2.22;;;1.98;;
50104;SDS011;47690;39.202;-77.198;2023-07-31T09:01:08;2.40;;;2.20;;
50104;SDS011;47690;39.202;-77.198;2023-07-31T09:04:11;2.47;;;2.08;;
50104;SDS011;47690;39.202;-77.198;2023-07-31T09:07:16;3.45;;;2.25;;
50104;SDS011;47690;39.202;-77.198;2023-07-31T09:10:20;2.45;;;2.25;;
50104;SDS011;47690;39.202;-77.198;2023-07-31T09:13:23;2.47;;;2.28;;
50104;SDS011;47690;39.202;-77.198;2023-07-31T09:16:28;2.33;;;2.13;;
50104;SDS011;47690;39.202;-77.198;2023-07-31T09:19:35;2.40;;;2.20;;
50104;SDS011;47690;39.202;-77.198;2023-07-31T09:22:44;3.42;;;2.15;;
50104;SDS011;47690;39.202;-77.198;2023-07-31T09:25:48;2.30;;;2.10;;
50104;SDS011;47690;39.202;-77.198;2023-07-31T09:31:58;2.33;;;2.13;;
50104;SDS011;47690;39.202;-77.198;2023-07-31T09:35:15;2.22;;;2.05;;
50104;SDS011;47690;39.202;-77.198;2023-07-31T09:38:23;2.60;;;2.40;;
50104;SDS011;47690;39.202;-77.198;2023-07-31T09:45:08;2.90;;;2.35;;
50104;SDS011;47690;39.202;-77.198;2023-07-31T09:48:20;2.60;;;2.00;;
50104;SDS011;47690;39.202;-77.198;2023-07-31T09:51:28;2.50;;;2.20;;
50104;SDS011;47690;39.202;-77.198;2023-07-31T09:54:35;2.40;;;2.20;;
50104;SDS011;47690;39.202;-77.198;2023-07-31T09:57:42;3.10;;;2.70;;
50104;SDS011;47690;39.202;-77.198;2023-07-31T10:00:51;3.45;;;2.20;;
50104;SDS011;47690;39.202;-77.198;2023-07-31T10:07:37;2.95;;;2.28;;
50104;SDS011;47690;39.202;-77.198;2023-07-31T10:10:45;2.10;;;1.90;;
50104;SDS011;47690;39.202;-77.198;2023-07-31T10:13:51;3.30;;;2.28;;
50104;SDS011;47690;39.202;-77.198;2023-07-31T10:16:57;2.33;;;1.90;;
50104;SDS011;47690;39.202;-77.198;2023-07-31T10:20:04;2.40;;;2.10;;
50104;SDS011;47690;39.202;-77.198;2023-07-31T10:23:12;2.60;;;2.40;;
50104;SDS011;47690;39.202;-77.198;2023-07-31T10:26:17;2.50;;;2.30;;
50104;SDS011;47690;39.202;-77.198;2023-07-31T10:32:55;2.28;;;2.08;;
50104;SDS011;47690;39.202;-77.198;2023-07-31T10:36:12;2.25;;;2.05;;
50104;SDS011;47690;39.202;-77.198;2023-07-31T10:39:36;2.40;;;2.20;;
50104;SDS011;47690;39.202;-77.198;2023-07-31T10:42:47;2.55;;;2.35;;
50104;SDS011;47690;39.202;-77.198;2023-07-31T10:45:51;3.65;;;2.30;;
50104;SDS011;47690;39.202;-77.198;2023-07-31T10:52:27;2.60;;;2.40;;
50104;SDS011;47690;39.202;-77.198;2023-07-31T10:55:41;2.72;;;2.53;;
50104;SDS011;47690;39.202;-77.198;2023-07-31T10:58:47;2.70;;;2.50;;
50104;SDS011;47690;39.202;-77.198;2023-07-31T11:02:08;2.42;;;2.22;;
50104;SDS011;47690;39.202;-77.198;2023-07-31T11:06:09;2.30;;;2.10;;
50104;SDS011;47690;39.202;-77.198;2023-07-31T11:09:05;4.15;;;2.50;;
50104;SDS011;47690;39.202;-77.198;2023-07-31T11:12:09;3.33;;;2.30;;
50104;SDS011;47690;39.202;-77.198;2023-07-31T11:15:13;3.67;;;2.30;;
50104;SDS011;47690;39.202;-77.198;2023-07-31T11:18:17;2.70;;;2.40;;
50104;SDS011;47690;39.202;-77.198;2023-07-31T11:21:20;3.20;;;2.15;;
50104;SDS011;47690;39.202;-77.198;2023-07-31T11:24:27;2.88;;;2.40;;
50104;SDS011;47690;39.202;-77.198;2023-07-31T11:27:38;2.92;;;2.63;;
50104;SDS011;47690;39.202;-77.198;2023-07-31T11:30:45;2.60;;;2.40;;
50104;SDS011;47690;39.202;-77.198;2023-07-31T11:33:51;3.47;;;2.75;;
50104;SDS011;47690;39.202;-77.198;2023-07-31T11:37:05;3.20;;;2.75;;
50104;SDS011;47690;39.202;-77.198;2023-07-31T11:40:09;2.60;;;2.40;;
50104;SDS011;47690;39.202;-77.198;2023-07-31T11:43:11;2.85;;;2.58;;
50104;SDS011;47690;39.202;-77.198;2023-07-31T11:46:11;2.90;;;2.40;;
50104;SDS011;47690;39.202;-77.198;2023-07-31T11:49:15;3.13;;;2.83;;
50104;SDS011;47690;39.202;-77.198;2023-07-31T11:55:52;2.97;;;2.67;;
50104;SDS011;47690;39.202;-77.198;2023-07-31T11:58:59;3.30;;;2.78;;
50104;SDS011;47690;39.202;-77.198;2023-07-31T12:02:04;3.08;;;2.67;;
50104;SDS011;47690;39.202;-77.198;2023-07-31T12:05:12;3.40;;;2.80;;
50104;SDS011;47690;39.202;-77.198;2023-07-31T12:08:15;3.20;;;2.90;;
50104;SDS011;47690;39.202;-77.198;2023-07-31T12:11:23;3.25;;;2.95;;
50104;SDS011;47690;39.202;-77.198;2023-07-31T12:17:57;2.92;;;2.65;;
50104;SDS011;47690;39.202;-77.198;2023-07-31T12:21:02;3.03;;;2.72;;
50104;SDS011;47690;39.202;-77.198;2023-07-31T12:24:11;3.20;;;2.90;;
50104;SDS011;47690;39.202;-77.198;2023-07-31T12:27:13;3.17;;;2.88;;
50104;SDS011;47690;39.202;-77.198;2023-07-31T12:30:26;3.30;;;2.83;;
50104;SDS011;47690;39.202;-77.198;2023-07-31T12:33:29;3.83;;;2.80;;
50104;SDS011;47690;39.202;-77.198;2023-07-31T12:36:16;2.92;;;2.72;;
50104;SDS011;47690;39.202;-77.198;2023-07-31T12:38:47;3.13;;;2.83;;
50104;SDS011;47690;39.202;-77.198;2023-07-31T12:41:16;3.33;;;3.03;;
50104;SDS011;47690;39.202;-77.198;2023-07-31T12:43:45;3.22;;;2.92;;
50104;SDS011;47690;39.202;-77.198;2023-07-31T12:46:15;3.03;;;2.78;;
50104;SDS011;47690;39.202;-77.198;2023-07-31T12:48:45;3.40;;;3.10;;
50104;SDS011;47690;39.202;-77.198;2023-07-31T12:51:14;3.03;;;2.75;;
50104;SDS011;47690;39.202;-77.198;2023-07-31T12:53:44;3.13;;;2.80;;
50104;SDS011;47690;39.202;-77.198;2023-07-31T12:56:17;3.20;;;2.90;;
50104;SDS011;47690;39.202;-77.198;2023-07-31T12:58:47;3.10;;;2.80;;
50104;SDS011;47690;39.202;-77.198;2023-07-31T13:01:16;3.25;;;2.95;;
50104;SDS011;47690;39.202;-77.198;2023-07-31T13:03:45;2.90;;;2.65;;
50104;SDS011;47690;39.202;-77.198;2023-07-31T13:06:14;3.25;;;2.70;;
50104;SDS011;47690;39.202;-77.198;2023-07-31T13:08:43;2.85;;;2.65;;
50104;SDS011;47690;39.202;-77.198;2023-07-31T13:11:12;3.35;;;3.00;;
50104;SDS011;47690;39.202;-77.198;2023-07-31T13:13:41;2.90;;;2.50;;
50104;SDS011;47690;39.202;-77.198;2023-07-31T13:16:11;3.20;;;2.90;;
50104;SDS011;47690;39.202;-77.198;2023-07-31T13:18:40;3.10;;;2.80;;
50104;SDS011;47690;39.202;-77.198;2023-07-31T13:21:09;3.40;;;3.10;;
50104;SDS011;47690;39.202;-77.198;2023-07-31T13:23:38;3.20;;;2.90;;
50104;SDS011;47690;39.202;-77.198;2023-07-31T13:26:09;3.08;;;2.78;;
50104;SDS011;47690;39.202;-77.198;2023-07-31T13:28:39;3.33;;;3.03;;
50104;SDS011;47690;39.202;-77.198;2023-07-31T13:31:08;3.30;;;2.70;;
50104;SDS011;47690;39.202;-77.198;2023-07-31T13:33:39;2.80;;;2.60;;
50104;SDS011;47690;39.202;-77.198;2023-07-31T13:36:10;2.80;;;2.60;;
50104;SDS011;47690;39.202;-77.198;2023-07-31T13:38:43;2.97;;;2.70;;
50104;SDS011;47690;39.202;-77.198;2023-07-31T13:41:12;3.10;;;2.80;;
50104;SDS011;47690;39.202;-77.198;2023-07-31T13:43:41;3.20;;;2.85;;
50104;SDS011;47690;39.202;-77.198;2023-07-31T13:46:19;3.10;;;2.80;;
50104;SDS011;47690;39.202;-77.198;2023-07-31T13:48:48;3.00;;;2.80;;
50104;SDS011;47690;39.202;-77.198;2023-07-31T13:51:18;3.67;;;3.00;;
50104;SDS011;47690;39.202;-77.198;2023-07-31T13:53:49;3.10;;;2.80;;
50104;SDS011;47690;39.202;-77.198;2023-07-31T13:56:20;2.90;;;2.53;;
50104;SDS011;47690;39.202;-77.198;2023-07-31T13:58:49;3.40;;;3.10;;
50104;SDS011;47690;39.202;-77.198;2023-07-31T14:01:19;3.00;;;2.70;;
50104;SDS011;47690;39.202;-77.198;2023-07-31T14:03:51;3.17;;;2.88;;
50104;SDS011;47690;39.202;-77.198;2023-07-31T14:06:21;3.75;;;2.88;;
50104;SDS011;47690;39.202;-77.198;2023-07-31T14:08:50;3.15;;;2.85;;
50104;SDS011;47690;39.202;-77.198;2023-07-31T14:11:20;4.35;;;2.67;;
50104;SDS011;47690;39.202;-77.198;2023-07-31T14:13:50;3.00;;;2.75;;
50104;SDS011;47690;39.202;-77.198;2023-07-31T14:16:19;2.72;;;2.53;;
50104;SDS011;47690;39.202;-77.198;2023-07-31T14:18:48;2.90;;;2.60;;
50104;SDS011;47690;39.202;-77.198;2023-07-31T14:21:22;3.00;;;2.70;;
50104;SDS011;47690;39.202;-77.198;2023-07-31T14:23:52;3.08;;;2.78;;
50104;SDS011;47690;39.202;-77.198;2023-07-31T14:26:24;3.35;;;3.00;;
50104;SDS011;47690;39.202;-77.198;2023-07-31T14:28:55;3.05;;;2.75;;
50104;SDS011;47690;39.202;-77.198;2023-07-31T14:31:24;3.00;;;2.70;;
50104;SDS011;47690;39.202;-77.198;2023-07-31T14:33:53;2.97;;;2.70;;
50104;SDS011;47690;39.202;-77.198;2023-07-31T14:36:28;3.63;;;2.58;;
50104;SDS011;47690;39.202;-77.198;2023-07-31T14:38:57;2.80;;;2.60;;
50104;SDS011;47690;39.202;-77.198;2023-07-31T14:41:27;2.80;;;2.60;;
50104;SDS011;47690;39.202;-77.198;2023-07-31T14:43:59;2.80;;;2.58;;
50104;SDS011;47690;39.202;-77.198;2023-07-31T14:46:28;3.53;;;2.78;;
50104;SDS011;47690;39.202;-77.198;2023-07-31T14:48:57;2.65;;;2.42;;
50104;SDS011;47690;39.202;-77.198;2023-07-31T14:51:27;3.00;;;2.70;;
50104;SDS011;47690;39.202;-77.198;2023-07-31T14:53:56;3.42;;;2.83;;
50104;SDS011;47690;39.202;-77.198;2023-07-31T14:56:28;3.00;;;2.70;;
50104;SDS011;47690;39.202;-77.198;2023-07-31T14:58:59;2.88;;;2.60;;
50104;SDS011;47690;39.202;-77.198;2023-07-31T15:01:35;3.00;;;2.67;;
50104;SDS011;47690;39.202;-77.198;2023-07-31T15:04:09;2.72;;;2.47;;
50104;SDS011;47690;39.202;-77.198;2023-07-31T15:06:40;2.60;;;2.40;;
50104;SDS011;47690;39.202;-77.198;2023-07-31T15:09:28;2.60;;;2.40;;
50104;SDS011;47690;39.202;-77.198;2023-07-31T15:12:09;2.78;;;2.50;;
50104;SDS011;47690;39.202;-77.198;2023-07-31T15:14:44;2.83;;;2.63;;
50104;SDS011;47690;39.202;-77.198;2023-07-31T15:20:41;2.63;;;2.42;;
50104;SDS011;47690;39.202;-77.198;2023-07-31T15:23:20;2.85;;;2.63;;
50104;SDS011;47690;39.202;-77.198;2023-07-31T15:25:55;3.10;;;2.70;;
50104;SDS011;47690;39.202;-77.198;2023-07-31T15:28:26;2.95;;;2.63;;
50104;SDS011;47690;39.202;-77.198;2023-07-31T15:30:57;2.70;;;2.50;;
50104;SDS011;47690;39.202;-77.198;2023-07-31T15:33:33;2.70;;;2.50;;
50104;SDS011;47690;39.202;-77.198;2023-07-31T15:36:09;2.90;;;2.60;;
50104;SDS011;47690;39.202;-77.198;2023-07-31T15:41:31;2.70;;;2.50;;
50104;SDS011;47690;39.202;-77.198;2023-07-31T15:44:01;2.58;;;2.38;;
50104;SDS011;47690;39.202;-77.198;2023-07-31T15:46:30;2.67;;;2.40;;
50104;SDS011;47690;39.202;-77.198;2023-07-31T15:48:59;2.70;;;2.50;;
50104;SDS011;47690;39.202;-77.198;2023-07-31T15:51:31;2.60;;;2.40;;
50104;SDS011;47690;39.202;-77.198;2023-07-31T15:54:01;2.40;;;2.20;;
50104;SDS011;47690;39.202;-77.198;2023-07-31T15:56:30;3.08;;;2.70;;
50104;SDS011;47690;39.202;-77.198;2023-07-31T15:58:59;2.78;;;2.50;;
50104;SDS011;47690;39.202;-77.198;2023-07-31T16:01:28;3.03;;;2.72;;
50104;SDS011;47690;39.202;-77.198;2023-07-31T16:03:57;3.22;;;2.33;;
50104;SDS011;47690;39.202;-77.198;2023-07-31T16:06:27;2.50;;;2.30;;
50104;SDS011;47690;39.202;-77.198;2023-07-31T16:08:56;2.75;;;2.40;;
50104;SDS011;47690;39.202;-77.198;2023-07-31T16:11:26;2.83;;;2.45;;
50104;SDS011;47690;39.202;-77.198;2023-07-31T16:13:59;2.50;;;2.30;;
50104;SDS011;47690;39.202;-77.198;2023-07-31T16:16:30;2.95;;;2.65;;
50104;SDS011;47690;39.202;-77.198;2023-07-31T16:18:59;3.97;;;2.80;;
50104;SDS011;47690;39.202;-77.198;2023-07-31T16:21:29;3.58;;;2.97;;
50104;SDS011;47690;39.202;-77.198;2023-07-31T16:23:58;2.97;;;2.60;;
50104;SDS011;47690;39.202;-77.198;2023-07-31T16:26:29;2.70;;;2.50;;
50104;SDS011;47690;39.202;-77.198;2023-07-31T16:29:03;2.80;;;2.53;;
50104;SDS011;47690;39.202;-77.198;2023-07-31T16:31:32;3.28;;;2.60;;
50104;SDS011;47690;39.202;-77.198;2023-07-31T16:34:21;2.90;;;2.60;;
50104;SDS011;47690;39.202;-77.198;2023-07-31T16:36:52;3.00;;;2.70;;
50104;SDS011;47690;39.202;-77.198;2023-07-31T16:39:28;3.10;;;2.80;;
50104;SDS011;47690;39.202;-77.198;2023-07-31T16:42:07;3.15;;;2.78;;
50104;SDS011;47690;39.202;-77.198;2023-07-31T16:44:37;3.10;;;2.80;;
50104;SDS011;47690;39.202;-77.198;2023-07-31T16:47:11;3.05;;;2.75;;
50104;SDS011;47690;39.202;-77.198;2023-07-31T16:49:40;3.10;;;2.80;;
50104;SDS011;47690;39.202;-77.198;2023-07-31T16:52:09;3.22;;;2.80;;
50104;SDS011;47690;39.202;-77.198;2023-07-31T16:54:39;3.17;;;2.80;;
50104;SDS011;47690;39.202;-77.198;2023-07-31T16:57:08;3.00;;;2.70;;
50104;SDS011;47690;39.202;-77.198;2023-07-31T16:59:39;3.00;;;2.70;;
50104;SDS011;47690;39.202;-77.198;2023-07-31T17:02:08;3.40;;;2.90;;
50104;SDS011;47690;39.202;-77.198;2023-07-31T17:04:37;3.10;;;2.80;;
50104;SDS011;47690;39.202;-77.198;2023-07-31T17:07:07;3.10;;;2.80;;
50104;SDS011;47690;39.202;-77.198;2023-07-31T17:09:37;4.00;;;2.83;;
50104;SDS011;47690;39.202;-77.198;2023-07-31T17:12:05;2.75;;;2.55;;
50104;SDS011;47690;39.202;-77.198;2023-07-31T17:14:36;3.03;;;2.72;;
50104;SDS011;47690;39.202;-77.198;2023-07-31T17:17:06;3.45;;;3.15;;
50104;SDS011;47690;39.202;-77.198;2023-07-31T17:19:36;2.75;;;2.55;;
50104;SDS011;47690;39.202;-77.198;2023-07-31T17:22:05;3.25;;;2.92;;
50104;SDS011;47690;39.202;-77.198;2023-07-31T17:24:36;2.83;;;2.58;;
50104;SDS011;47690;39.202;-77.198;2023-07-31T17:27:10;2.80;;;2.60;;
50104;SDS011;47690;39.202;-77.198;2023-07-31T17:29:40;2.80;;;2.60;;
50104;SDS011;47690;39.202;-77.198;2023-07-31T17:32:09;4.30;;;3.00;;
50104;SDS011;47690;39.202;-77.198;2023-07-31T17:34:38;7.68;;;2.83;;
50104;SDS011;47690;39.202;-77.198;2023-07-31T17:37:07;6.60;;;3.30;;
50104;SDS011;47690;39.202;-77.198;2023-07-31T17:39:39;3.25;;;2.63;;
50104;SDS011;47690;39.202;-77.198;2023-07-31T17:42:08;2.92;;;2.63;;
50104;SDS011;47690;39.202;-77.198;2023-07-31T17:44:37;2.88;;;2.60;;
50104;SDS011;47690;39.202;-77.198;2023-07-31T17:47:06;2.72;;;2.53;;
50104;SDS011;47690;39.202;-77.198;2023-07-31T17:49:40;2.90;;;2.70;;
50104;SDS011;47690;39.202;-77.198;2023-07-31T17:52:09;2.90;;;2.60;;
50104;SDS011;47690;39.202;-77.198;2023-07-31T17:54:37;2.97;;;2.70;;
50104;SDS011;47690;39.202;-77.198;2023-07-31T17:57:07;2.80;;;2.45;;
50104;SDS011;47690;39.202;-77.198;2023-07-31T17:59:37;3.00;;;2.70;;
50104;SDS011;47690;39.202;-77.198;2023-07-31T18:02:05;2.90;;;2.60;;
50104;SDS011;47690;39.202;-77.198;2023-07-31T18:04:38;2.80;;;2.60;;
50104;SDS011;47690;39.202;-77.198;2023-07-31T18:07:10;2.70;;;2.50;;
50104;SDS011;47690;39.202;-77.198;2023-07-31T18:09:41;2.70;;;2.50;;
50104;SDS011;47690;39.202;-77.198;2023-07-31T18:12:11;2.30;;;2.10;;
50104;SDS011;47690;39.202;-77.198;2023-07-31T18:14:41;2.85;;;2.60;;
50104;SDS011;47690;39.202;-77.198;2023-07-31T18:17:11;3.10;;;2.70;;
50104;SDS011;47690;39.202;-77.198;2023-07-31T18:19:44;2.70;;;2.50;;
50104;SDS011;47690;39.202;-77.198;2023-07-31T18:22:13;2.90;;;2.60;;
50104;SDS011;47690;39.202;-77.198;2023-07-31T18:24:43;2.80;;;2.60;;
50104;SDS011;47690;39.202;-77.198;2023-07-31T18:27:12;2.97;;;2.67;;
50104;SDS011;47690;39.202;-77.198;2023-07-31T18:29:42;3.22;;;2.90;;
50104;SDS011;47690;39.202;-77.198;2023-07-31T18:32:11;2.70;;;2.40;;
50104;SDS011;47690;39.202;-77.198;2023-07-31T18:34:40;2.78;;;2.50;;
50104;SDS011;47690;39.202;-77.198;2023-07-31T18:37:09;3.47;;;2.40;;
50104;SDS011;47690;39.202;-77.198;2023-07-31T18:39:37;4.35;;;2.90;;
50104;SDS011;47690;39.202;-77.198;2023-07-31T18:42:11;2.90;;;2.60;;
50104;SDS011;47690;39.202;-77.198;2023-07-31T18:44:41;3.13;;;2.83;;
50104;SDS011;47690;39.202;-77.198;2023-07-31T18:47:10;2.90;;;2.60;;
50104;SDS011;47690;39.202;-77.198;2023-07-31T18:50:05;2.80;;;2.33;;
50104;SDS011;47690;39.202;-77.198;2023-07-31T18:52:37;2.90;;;2.58;;
50104;SDS011;47690;39.202;-77.198;2023-07-31T18:55:07;3.75;;;2.80;;
50104;SDS011;47690;39.202;-77.198;2023-07-31T18:57:36;3.08;;;2.70;;
50104;SDS011;47690;39.202;-77.198;2023-07-31T19:00:05;3.17;;;2.65;;
50104;SDS011;47690;39.202;-77.198;2023-07-31T19:02:39;2.72;;;2.53;;
50104;SDS011;47690;39.202;-77.198;2023-07-31T19:05:09;3.20;;;2.55;;
50104;SDS011;47690;39.202;-77.198;2023-07-31T19:07:37;2.95;;;2.55;;
50104;SDS011;47690;39.202;-77.198;2023-07-31T19:10:07;2.55;;;2.35;;
50104;SDS011;47690;39.202;-77.198;2023-07-31T19:12:43;2.83;;;2.30;;
50104;SDS011;47690;39.202;-77.198;2023-07-31T19:15:13;3.70;;;2.47;;
50104;SDS011;47690;39.202;-77.198;2023-07-31T19:17:41;3.00;;;2.70;;
50104;SDS011;47690;39.202;-77.198;2023-07-31T19:20:15;2.83;;;2.60;;
50104;SDS011;47690;39.202;-77.198;2023-07-31T19:22:44;2.53;;;2.33;;
50104;SDS011;47690;39.202;-77.198;2023-07-31T19:25:13;2.83;;;2.42;;
50104;SDS011;47690;39.202;-77.198;2023-07-31T19:27:42;2.80;;;2.50;;
50104;SDS011;47690;39.202;-77.198;2023-07-31T19:30:14;2.60;;;2.40;;
50104;SDS011;47690;39.202;-77.198;2023-07-31T19:32:43;3.10;;;2.80;;
50104;SDS011;47690;39.202;-77.198;2023-07-31T19:35:15;3.05;;;2.60;;
50104;SDS011;47690;39.202;-77.198;2023-07-31T19:37:44;2.83;;;2.53;;
50104;SDS011;47690;39.202;-77.198;2023-07-31T19:40:13;2.80;;;2.60;;
50104;SDS011;47690;39.202;-77.198;2023-07-31T19:42:42;2.95;;;2.65;;
50104;SDS011;47690;39.202;-77.198;2023-07-31T19:45:12;2.90;;;2.50;;
50104;SDS011;47690;39.202;-77.198;2023-07-31T19:47:41;2.80;;;2.50;;
50104;SDS011;47690;39.202;-77.198;2023-07-31T19:50:10;2.80;;;2.50;;
50104;SDS011;47690;39.202;-77.198;2023-07-31T19:52:39;2.60;;;2.30;;
50104;SDS011;47690;39.202;-77.198;2023-07-31T19:55:09;2.60;;;2.40;;
50104;SDS011;47690;39.202;-77.198;2023-07-31T19:57:38;2.60;;;2.30;;
50104;SDS011;47690;39.202;-77.198;2023-07-31T20:00:07;2.65;;;2.45;;
50104;SDS011;47690;39.202;-77.198;2023-07-31T20:02:37;3.08;;;2.40;;
50104;SDS011;47690;39.202;-77.198;2023-07-31T20:05:08;2.60;;;2.40;;
50104;SDS011;47690;39.202;-77.198;2023-07-31T20:07:37;2.78;;;2.40;;
50104;SDS011;47690;39.202;-77.198;2023-07-31T20:10:08;2.90;;;2.60;;
50104;SDS011;47690;39.202;-77.198;2023-07-31T20:12:37;2.50;;;2.30;;
50104;SDS011;47690;39.202;-77.198;2023-07-31T20:15:17;2.95;;;2.40;;
50104;SDS011;47690;39.202;-77.198;2023-07-31T20:17:48;3.72;;;2.40;;
50104;SDS011;47690;39.202;-77.198;2023-07-31T20:20:17;2.60;;;2.40;;
50104;SDS011;47690;39.202;-77.198;2023-07-31T20:22:49;2.97;;;2.63;;
50104;SDS011;47690;39.202;-77.198;2023-07-31T20:25:17;3.03;;;2.60;;
50104;SDS011;47690;39.202;-77.198;2023-07-31T20:27:47;3.75;;;2.75;;